Archival Weather

Chicago O'Hare International

Chicago, Illinois (KORD)

Report from: Tuesday, September 19, 2023 6:51 PM CDT
Current time: Monday, June 17, 2024 5:24 AM CDT

Current weather – Weather history – Daily summaries
Weather forecast

Present weatherLight rain, mist
Temperature18.9°C (66.0°F)
Dew point13.9°C (57.0°F)
Winds 5 kts (2.6 m/s, 5.8 mph) Southeast (140°)
Visibility6 mi. (9.7 km)
Clouds Few clouds 6,000 ft. (1,829 m)
Ceiling: Broken clouds 8,500 ft. (2,591 m)
Broken clouds 11,000 ft. (3,353 m)
Overcast 25,000 ft. (7,620 m)
Altimeter29.98 in.Hg (1015 mB)
Precipitiation0.01 in. (0 mm)
Precip. events Rain ended 10:59 PM
Rain began 11:16 PM
Precip last 3 hours0.06 in. (2 mm)
Relative humidity73 %
Density altitude619 ft. (189 m)
Sea-level pressure101.5 kPa (1015 mB, 29.97 in.Hg)
Max temp last 6 hours18.9°C (66.0°F)
Min temp last 6 hours15.6°C (60.1°F)
Remarks Automated weather observing station with precipitation discriminator
Pressure rising rapidly
Pressure rising more quickly
Flight conditions Visual Meteorological Conditions
Raw dataKORD 192351Z 14005KT 6SM -RA BR FEW060 BKN085 BKN110 OVC250 19/14 A2998 RMK AO2 RAE2259B16 PRESRR SLP150 P0001 60006 T01890139 10189 20156 53003
An error has occurred. This application may no longer respond until reloaded. Reload 🗙